sensor_id;sensor_type;location;lat;lon;timestamp;pressure;altitude;pressure_sealevel;temperature;humidity
84043;BME280;74129;52.540;13.416;2023-12-07T00:00:00;101010.27;;;2.28;73.51
84043;BME280;74129;52.540;13.416;2023-12-07T00:02:27;101014.66;;;2.30;73.60
84043;BME280;74129;52.540;13.416;2023-12-07T00:04:53;101012.60;;;2.33;73.68
84043;BME280;74129;52.540;13.416;2023-12-07T00:07:20;101008.96;;;2.37;73.29
84043;BME280;74129;52.540;13.416;2023-12-07T00:09:46;101011.60;;;2.41;73.56
84043;BME280;74129;52.540;13.416;2023-12-07T00:12:12;101011.98;;;2.42;73.51
84043;BME280;74129;52.540;13.416;2023-12-07T00:14:39;101016.92;;;2.41;73.43
84043;BME280;74129;52.540;13.416;2023-12-07T00:17:05;101012.81;;;2.38;73.66
84043;BME280;74129;52.540;13.416;2023-12-07T00:19:32;101007.54;;;2.36;73.58
84043;BME280;74129;52.540;13.416;2023-12-07T00:21:58;101010.04;;;2.38;73.64
84043;BME280;74129;52.540;13.416;2023-12-07T00:24:24;101010.65;;;2.38;73.35
84043;BME280;74129;52.540;13.416;2023-12-07T00:26:51;101014.33;;;2.37;73.62
84043;BME280;74129;52.540;13.416;2023-12-07T00:29:17;101009.98;;;2.37;73.67
84043;BME280;74129;52.540;13.416;2023-12-07T00:31:44;101010.64;;;2.37;73.65
84043;BME280;74129;52.540;13.416;2023-12-07T00:34:10;101012.00;;;2.39;73.54
84043;BME280;74129;52.540;13.416;2023-12-07T00:36:37;101013.31;;;2.43;73.53
84043;BME280;74129;52.540;13.416;2023-12-07T00:39:03;101017.08;;;2.44;73.40
84043;BME280;74129;52.540;13.416;2023-12-07T00:41:31;101020.11;;;2.42;73.49
84043;BME280;74129;52.540;13.416;2023-12-07T00:43:57;101021.08;;;2.40;73.59
84043;BME280;74129;52.540;13.416;2023-12-07T00:46:24;101022.27;;;2.40;73.31
84043;BME280;74129;52.540;13.416;2023-12-07T00:48:50;101024.84;;;2.43;73.22
84043;BME280;74129;52.540;13.416;2023-12-07T00:51:17;101023.33;;;2.44;73.40
84043;BME280;74129;52.540;13.416;2023-12-07T00:53:43;101025.14;;;2.44;73.36
84043;BME280;74129;52.540;13.416;2023-12-07T00:56:10;101024.58;;;2.42;73.44
84043;BME280;74129;52.540;13.416;2023-12-07T00:58:36;101030.11;;;2.40;73.24
84043;BME280;74129;52.540;13.416;2023-12-07T01:01:04;101031.91;;;2.41;73.60
84043;BME280;74129;52.540;13.416;2023-12-07T01:03:31;101027.27;;;2.43;73.43
84043;BME280;74129;52.540;13.416;2023-12-07T01:05:57;101029.50;;;2.46;73.17
84043;BME280;74129;52.540;13.416;2023-12-07T01:08:24;101032.36;;;2.45;73.16
84043;BME280;74129;52.540;13.416;2023-12-07T01:10:50;101035.37;;;2.43;73.31
84043;BME280;74129;52.540;13.416;2023-12-07T01:13:16;101046.09;;;2.41;73.19
84043;BME280;74129;52.540;13.416;2023-12-07T01:15:43;101050.11;;;2.43;73.31
84043;BME280;74129;52.540;13.416;2023-12-07T01:18:09;101054.63;;;2.41;73.12
84043;BME280;74129;52.540;13.416;2023-12-07T01:20:35;101057.63;;;2.39;73.44
84043;BME280;74129;52.540;13.416;2023-12-07T01:23:02;101064.35;;;2.39;73.16
84043;BME280;74129;52.540;13.416;2023-12-07T01:25:29;101066.06;;;2.37;73.18
84043;BME280;74129;52.540;13.416;2023-12-07T01:27:55;101068.31;;;2.37;73.40
84043;BME280;74129;52.540;13.416;2023-12-07T01:30:21;101068.31;;;2.42;73.23
84043;BME280;74129;52.540;13.416;2023-12-07T01:32:48;101067.02;;;2.42;73.16
84043;BME280;74129;52.540;13.416;2023-12-07T01:35:14;101069.91;;;2.42;73.63
84043;BME280;74129;52.540;13.416;2023-12-07T01:37:40;101074.10;;;2.41;73.44
84043;BME280;74129;52.540;13.416;2023-12-07T01:40:07;101082.34;;;2.40;73.51
84043;BME280;74129;52.540;13.416;2023-12-07T01:42:37;101085.34;;;2.37;73.50
84043;BME280;74129;52.540;13.416;2023-12-07T01:45:07;101084.46;;;2.35;73.37
84043;BME280;74129;52.540;13.416;2023-12-07T01:47:35;101086.09;;;2.34;73.48
84043;BME280;74129;52.540;13.416;2023-12-07T01:50:02;101093.05;;;2.36;73.53
84043;BME280;74129;52.540;13.416;2023-12-07T01:52:37;101092.89;;;2.36;73.10
84043;BME280;74129;52.540;13.416;2023-12-07T01:55:06;101096.23;;;2.33;73.26
84043;BME280;74129;52.540;13.416;2023-12-07T01:57:33;101096.69;;;2.33;73.24
84043;BME280;74129;52.540;13.416;2023-12-07T02:00:00;101096.48;;;2.31;73.56
84043;BME280;74129;52.540;13.416;2023-12-07T02:02:27;101091.42;;;2.29;73.32
84043;BME280;74129;52.540;13.416;2023-12-07T02:04:54;101093.02;;;2.29;73.45
84043;BME280;74129;52.540;13.416;2023-12-07T02:07:22;101092.20;;;2.28;73.43
84043;BME280;74129;52.540;13.416;2023-12-07T02:09:49;101094.30;;;2.27;73.40
84043;BME280;74129;52.540;13.416;2023-12-07T02:12:16;101096.92;;;2.27;73.47
84043;BME280;74129;52.540;13.416;2023-12-07T02:14:42;101097.91;;;2.29;73.58
84043;BME280;74129;52.540;13.416;2023-12-07T02:17:17;101098.25;;;2.30;73.76
84043;BME280;74129;52.540;13.416;2023-12-07T02:19:57;101095.71;;;2.29;73.74
84043;BME280;74129;52.540;13.416;2023-12-07T02:22:37;101099.54;;;2.31;73.62
84043;BME280;74129;52.540;13.416;2023-12-07T02:25:07;101099.65;;;2.34;73.52
84043;BME280;74129;52.540;13.416;2023-12-07T02:27:43;101092.69;;;2.36;73.66
84043;BME280;74129;52.540;13.416;2023-12-07T02:30:12;101091.72;;;2.38;73.44
84043;BME280;74129;52.540;13.416;2023-12-07T02:32:41;101091.13;;;2.36;73.33
84043;BME280;74129;52.540;13.416;2023-12-07T02:35:09;101094.54;;;2.34;73.64
84043;BME280;74129;52.540;13.416;2023-12-07T02:37:46;101101.86;;;2.31;73.52
84043;BME280;74129;52.540;13.416;2023-12-07T02:40:16;101104.86;;;2.29;73.74
84043;BME280;74129;52.540;13.416;2023-12-07T02:42:44;101107.34;;;2.32;73.41
84043;BME280;74129;52.540;13.416;2023-12-07T02:45:11;101107.05;;;2.32;73.77
84043;BME280;74129;52.540;13.416;2023-12-07T02:47:38;101108.55;;;2.31;73.57
84043;BME280;74129;52.540;13.416;2023-12-07T02:50:08;101112.63;;;2.34;73.81
84043;BME280;74129;52.540;13.416;2023-12-07T02:52:35;101115.21;;;2.37;73.97
84043;BME280;74129;52.540;13.416;2023-12-07T02:55:02;101114.00;;;2.37;74.02
84043;BME280;74129;52.540;13.416;2023-12-07T02:57:29;101117.70;;;2.37;73.66
84043;BME280;74129;52.540;13.416;2023-12-07T02:59:56;101117.70;;;2.39;73.53
84043;BME280;74129;52.540;13.416;2023-12-07T03:02:22;101119.30;;;2.39;73.44
84043;BME280;74129;52.540;13.416;2023-12-07T03:04:49;101122.75;;;2.41;73.63
84043;BME280;74129;52.540;13.416;2023-12-07T03:07:15;101128.96;;;2.41;73.42
84043;BME280;74129;52.540;13.416;2023-12-07T03:09:41;101128.33;;;2.39;73.07
84043;BME280;74129;52.540;13.416;2023-12-07T03:12:08;101128.20;;;2.35;73.00
84043;BME280;74129;52.540;13.416;2023-12-07T03:14:34;101127.75;;;2.32;73.62
84043;BME280;74129;52.540;13.416;2023-12-07T03:17:01;101126.38;;;2.36;73.42
84043;BME280;74129;52.540;13.416;2023-12-07T03:19:27;101130.41;;;2.42;73.25
84043;BME280;74129;52.540;13.416;2023-12-07T03:21:53;101133.00;;;2.41;73.35
84043;BME280;74129;52.540;13.416;2023-12-07T03:24:20;101134.23;;;2.35;73.11
84043;BME280;74129;52.540;13.416;2023-12-07T03:26:46;101136.77;;;2.33;73.20
84043;BME280;74129;52.540;13.416;2023-12-07T03:29:13;101139.88;;;2.31;73.21
84043;BME280;74129;52.540;13.416;2023-12-07T03:31:39;101140.23;;;2.33;73.44
84043;BME280;74129;52.540;13.416;2023-12-07T03:34:06;101139.64;;;2.36;73.34
84043;BME280;74129;52.540;13.416;2023-12-07T03:36:32;101142.42;;;2.35;73.48
84043;BME280;74129;52.540;13.416;2023-12-07T03:38:58;101146.23;;;2.30;72.96
84043;BME280;74129;52.540;13.416;2023-12-07T03:41:25;101149.23;;;2.26;73.28
84043;BME280;74129;52.540;13.416;2023-12-07T03:43:51;101151.60;;;2.26;73.41
84043;BME280;74129;52.540;13.416;2023-12-07T03:46:18;101152.46;;;2.25;73.48
84043;BME280;74129;52.540;13.416;2023-12-07T03:48:44;101157.71;;;2.22;73.09
84043;BME280;74129;52.540;13.416;2023-12-07T03:51:13;101160.00;;;2.20;73.47
84043;BME280;74129;52.540;13.416;2023-12-07T03:53:39;101163.69;;;2.17;73.36
84043;BME280;74129;52.540;13.416;2023-12-07T03:56:06;101163.02;;;2.14;73.85
84043;BME280;74129;52.540;13.416;2023-12-07T03:58:32;101160.84;;;2.11;73.49
84043;BME280;74129;52.540;13.416;2023-12-07T04:00:59;101161.27;;;2.09;73.56
84043;BME280;74129;52.540;13.416;2023-12-07T04:03:25;101158.64;;;2.04;73.74
84043;BME280;74129;52.540;13.416;2023-12-07T04:05:52;101153.98;;;2.05;73.83
84043;BME280;74129;52.540;13.416;2023-12-07T04:08:18;101155.95;;;2.03;73.69
84043;BME280;74129;52.540;13.416;2023-12-07T04:10:44;101152.89;;;2.01;73.94
84043;BME280;74129;52.540;13.416;2023-12-07T04:13:11;101151.63;;;2.02;73.75
84043;BME280;74129;52.540;13.416;2023-12-07T04:15:37;101154.52;;;2.03;73.63
84043;BME280;74129;52.540;13.416;2023-12-07T04:18:04;101158.50;;;2.04;73.87
84043;BME280;74129;52.540;13.416;2023-12-07T04:20:30;101156.79;;;2.04;74.09
84043;BME280;74129;52.540;13.416;2023-12-07T04:22:56;101161.17;;;2.05;73.96
84043;BME280;74129;52.540;13.416;2023-12-07T04:25:23;101163.06;;;2.10;73.84
84043;BME280;74129;52.540;13.416;2023-12-07T04:27:49;101163.85;;;2.13;74.08
84043;BME280;74129;52.540;13.416;2023-12-07T04:30:16;101165.00;;;2.12;73.95
84043;BME280;74129;52.540;13.416;2023-12-07T04:32:42;101166.16;;;2.09;73.85
84043;BME280;74129;52.540;13.416;2023-12-07T04:35:08;101170.48;;;2.09;73.89
84043;BME280;74129;52.540;13.416;2023-12-07T04:37:35;101179.50;;;2.09;73.94
84043;BME280;74129;52.540;13.416;2023-12-07T04:40:02;101181.27;;;2.09;73.99
84043;BME280;74129;52.540;13.416;2023-12-07T04:42:31;101185.38;;;2.09;74.14
84043;BME280;74129;52.540;13.416;2023-12-07T04:44:57;101187.29;;;2.10;73.95
84043;BME280;74129;52.540;13.416;2023-12-07T04:47:24;101189.33;;;2.11;74.16
84043;BME280;74129;52.540;13.416;2023-12-07T04:49:50;101195.55;;;2.12;73.84
84043;BME280;74129;52.540;13.416;2023-12-07T04:52:17;101198.63;;;2.16;73.86
84043;BME280;74129;52.540;13.416;2023-12-07T04:54:43;101199.77;;;2.16;73.83
84043;BME280;74129;52.540;13.416;2023-12-07T04:57:09;101202.70;;;2.13;73.90
84043;BME280;74129;52.540;13.416;2023-12-07T04:59:36;101201.89;;;2.13;73.97
84043;BME280;74129;52.540;13.416;2023-12-07T05:02:02;101201.08;;;2.10;73.93
84043;BME280;74129;52.540;13.416;2023-12-07T05:04:29;101203.67;;;2.08;74.06
84043;BME280;74129;52.540;13.416;2023-12-07T05:06:55;101206.30;;;2.04;74.17
84043;BME280;74129;52.540;13.416;2023-12-07T05:09:21;101204.38;;;2.01;74.04
84043;BME280;74129;52.540;13.416;2023-12-07T05:11:48;101205.34;;;2.00;74.30
84043;BME280;74129;52.540;13.416;2023-12-07T05:14:14;101205.05;;;1.99;74.49
84043;BME280;74129;52.540;13.416;2023-12-07T05:16:41;101204.93;;;1.99;74.51
84043;BME280;74129;52.540;13.416;2023-12-07T05:19:07;101202.81;;;2.00;74.54
84043;BME280;74129;52.540;13.416;2023-12-07T05:21:34;101208.08;;;2.02;74.27
84043;BME280;74129;52.540;13.416;2023-12-07T05:24:00;101205.05;;;2.05;74.13
84043;BME280;74129;52.540;13.416;2023-12-07T05:26:26;101203.05;;;2.07;73.97
84043;BME280;74129;52.540;13.416;2023-12-07T05:28:53;101205.81;;;2.09;74.57
84043;BME280;74129;52.540;13.416;2023-12-07T05:31:19;101204.72;;;2.11;74.28
84043;BME280;74129;52.540;13.416;2023-12-07T05:33:46;101208.09;;;2.13;74.36
84043;BME280;74129;52.540;13.416;2023-12-07T05:36:12;101216.03;;;2.17;74.41
84043;BME280;74129;52.540;13.416;2023-12-07T05:38:38;101213.73;;;2.22;74.27
84043;BME280;74129;52.540;13.416;2023-12-07T05:41:05;101214.17;;;2.28;74.30
84043;BME280;74129;52.540;13.416;2023-12-07T05:43:31;101213.89;;;2.32;74.14
84043;BME280;74129;52.540;13.416;2023-12-07T05:45:59;101210.86;;;2.35;73.88
84043;BME280;74129;52.540;13.416;2023-12-07T05:48:26;101210.50;;;2.38;74.06
84043;BME280;74129;52.540;13.416;2023-12-07T05:50:53;101210.19;;;2.40;73.77
84043;BME280;74129;52.540;13.416;2023-12-07T05:53:19;101209.70;;;2.43;73.90
84043;BME280;74129;52.540;13.416;2023-12-07T05:55:46;101211.02;;;2.48;74.17
84043;BME280;74129;52.540;13.416;2023-12-07T05:58:13;101208.90;;;2.52;73.85
84043;BME280;74129;52.540;13.416;2023-12-07T06:00:39;101208.48;;;2.55;73.67
84043;BME280;74129;52.540;13.416;2023-12-07T06:03:06;101210.48;;;2.47;73.73
84043;BME280;74129;52.540;13.416;2023-12-07T06:05:38;101210.40;;;2.48;73.77
84043;BME280;74129;52.540;13.416;2023-12-07T06:08:05;101219.28;;;2.52;73.63
84043;BME280;74129;52.540;13.416;2023-12-07T06:10:32;101223.29;;;2.56;73.48
84043;BME280;74129;52.540;13.416;2023-12-07T06:12:58;101224.89;;;2.57;73.76
84043;BME280;74129;52.540;13.416;2023-12-07T06:15:27;101230.31;;;2.56;73.43
84043;BME280;74129;52.540;13.416;2023-12-07T06:17:54;101233.64;;;2.53;73.36
84043;BME280;74129;52.540;13.416;2023-12-07T06:20:20;101230.48;;;2.53;73.54
84043;BME280;74129;52.540;13.416;2023-12-07T06:22:47;101233.23;;;2.51;73.51
84043;BME280;74129;52.540;13.416;2023-12-07T06:25:13;101235.48;;;2.51;73.65
84043;BME280;74129;52.540;13.416;2023-12-07T06:27:40;101231.52;;;2.52;73.50
84043;BME280;74129;52.540;13.416;2023-12-07T06:30:07;101236.78;;;2.54;73.38
84043;BME280;74129;52.540;13.416;2023-12-07T06:32:33;101239.52;;;2.57;73.54
84043;BME280;74129;52.540;13.416;2023-12-07T06:35:00;101248.69;;;2.55;73.44
84043;BME280;74129;52.540;13.416;2023-12-07T06:37:27;101251.85;;;2.52;73.65
84043;BME280;74129;52.540;13.416;2023-12-07T06:39:53;101258.25;;;2.52;73.49
84043;BME280;74129;52.540;13.416;2023-12-07T06:42:20;101260.65;;;2.51;73.48
84043;BME280;74129;52.540;13.416;2023-12-07T06:44:47;101263.77;;;2.52;73.55
84043;BME280;74129;52.540;13.416;2023-12-07T06:47:15;101266.84;;;2.49;73.43
84043;BME280;74129;52.540;13.416;2023-12-07T06:49:42;101266.14;;;2.48;73.56
84043;BME280;74129;52.540;13.416;2023-12-07T06:52:08;101268.88;;;2.49;73.63
84043;BME280;74129;52.540;13.416;2023-12-07T06:54:35;101273.99;;;2.49;73.56
84043;BME280;74129;52.540;13.416;2023-12-07T06:57:01;101277.74;;;2.48;73.56
84043;BME280;74129;52.540;13.416;2023-12-07T06:59:27;101273.20;;;2.48;73.37
84043;BME280;74129;52.540;13.416;2023-12-07T07:01:54;101269.65;;;2.48;73.15
84043;BME280;74129;52.540;13.416;2023-12-07T07:04:21;101271.06;;;2.44;73.18
84043;BME280;74129;52.540;13.416;2023-12-07T07:06:47;101274.56;;;2.43;73.34
84043;BME280;74129;52.540;13.416;2023-12-07T07:09:13;101274.64;;;2.39;73.34
84043;BME280;74129;52.540;13.416;2023-12-07T07:11:47;101272.62;;;2.38;73.55
84043;BME280;74129;52.540;13.416;2023-12-07T07:14:14;101278.83;;;2.41;73.53
84043;BME280;74129;52.540;13.416;2023-12-07T07:16:40;101280.44;;;2.40;73.27
84043;BME280;74129;52.540;13.416;2023-12-07T07:19:07;101279.33;;;2.35;73.32
84043;BME280;74129;52.540;13.416;2023-12-07T07:21:34;101283.96;;;2.37;73.33
84043;BME280;74129;52.540;13.416;2023-12-07T07:24:00;101281.89;;;2.38;73.23
84043;BME280;74129;52.540;13.416;2023-12-07T07:26:27;101281.19;;;2.35;73.26
84043;BME280;74129;52.540;13.416;2023-12-07T07:28:54;101284.95;;;2.35;73.16
84043;BME280;74129;52.540;13.416;2023-12-07T07:31:20;101290.64;;;2.36;73.47
84043;BME280;74129;52.540;13.416;2023-12-07T07:33:46;101287.62;;;2.36;73.41
84043;BME280;74129;52.540;13.416;2023-12-07T07:36:16;101291.86;;;2.33;73.50
84043;BME280;74129;52.540;13.416;2023-12-07T07:38:43;101287.60;;;2.32;73.55
84043;BME280;74129;52.540;13.416;2023-12-07T07:41:10;101289.18;;;2.33;73.85
84043;BME280;74129;52.540;13.416;2023-12-07T07:43:37;101286.14;;;2.35;73.71
84043;BME280;74129;52.540;13.416;2023-12-07T07:46:03;101290.64;;;2.38;73.64
84043;BME280;74129;52.540;13.416;2023-12-07T07:48:30;101290.81;;;2.40;73.44
84043;BME280;74129;52.540;13.416;2023-12-07T07:50:57;101289.15;;;2.38;73.64
84043;BME280;74129;52.540;13.416;2023-12-07T07:53:24;101289.75;;;2.37;73.71
84043;BME280;74129;52.540;13.416;2023-12-07T07:55:50;101287.83;;;2.33;73.88
84043;BME280;74129;52.540;13.416;2023-12-07T07:58:17;101290.45;;;2.37;73.45
84043;BME280;74129;52.540;13.416;2023-12-07T08:00:43;101289.17;;;2.39;73.76
84043;BME280;74129;52.540;13.416;2023-12-07T08:03:12;101291.35;;;2.42;73.53
84043;BME280;74129;52.540;13.416;2023-12-07T08:05:39;101290.35;;;2.41;73.59
84043;BME280;74129;52.540;13.416;2023-12-07T08:08:05;101290.36;;;2.39;73.76
84043;BME280;74129;52.540;13.416;2023-12-07T08:10:33;101291.13;;;2.42;73.83
84043;BME280;74129;52.540;13.416;2023-12-07T08:12:59;101291.55;;;2.43;73.66
84043;BME280;74129;52.540;13.416;2023-12-07T08:15:26;101289.82;;;2.45;73.65
84043;BME280;74129;52.540;13.416;2023-12-07T08:17:52;101289.16;;;2.48;73.70
84043;BME280;74129;52.540;13.416;2023-12-07T08:20:18;101294.70;;;2.50;73.68
84043;BME280;74129;52.540;13.416;2023-12-07T08:22:45;101305.48;;;2.55;73.81
84043;BME280;74129;52.540;13.416;2023-12-07T08:25:11;101307.04;;;2.58;73.43
84043;BME280;74129;52.540;13.416;2023-12-07T08:27:38;101311.93;;;2.57;73.33
84043;BME280;74129;52.540;13.416;2023-12-07T08:30:05;101313.82;;;2.58;72.93
84043;BME280;74129;52.540;13.416;2023-12-07T08:32:32;101314.63;;;2.56;73.18
84043;BME280;74129;52.540;13.416;2023-12-07T08:34:59;101319.76;;;2.53;73.56
84043;BME280;74129;52.540;13.416;2023-12-07T08:37:25;101319.92;;;2.53;73.24
84043;BME280;74129;52.540;13.416;2023-12-07T08:39:51;101323.61;;;2.50;73.21
84043;BME280;74129;52.540;13.416;2023-12-07T08:42:20;101320.09;;;2.44;73.15
84043;BME280;74129;52.540;13.416;2023-12-07T08:44:47;101319.83;;;2.46;73.50
84043;BME280;74129;52.540;13.416;2023-12-07T08:47:13;101322.65;;;2.49;73.36
84043;BME280;74129;52.540;13.416;2023-12-07T08:49:39;101325.48;;;2.51;73.21
84043;BME280;74129;52.540;13.416;2023-12-07T08:52:06;101326.23;;;2.52;73.28
84043;BME280;74129;52.540;13.416;2023-12-07T08:54:33;101324.84;;;2.55;73.28
84043;BME280;74129;52.540;13.416;2023-12-07T08:57:00;101325.35;;;2.56;73.45
84043;BME280;74129;52.540;13.416;2023-12-07T08:59:26;101330.61;;;2.58;73.23
84043;BME280;74129;52.540;13.416;2023-12-07T09:01:52;101328.77;;;2.57;73.05
84043;BME280;74129;52.540;13.416;2023-12-07T09:04:19;101330.80;;;2.57;73.08
84043;BME280;74129;52.540;13.416;2023-12-07T09:06:45;101330.98;;;2.62;73.07
84043;BME280;74129;52.540;13.416;2023-12-07T09:09:12;101334.81;;;2.63;73.33
84043;BME280;74129;52.540;13.416;2023-12-07T09:11:38;101336.87;;;2.65;73.32
84043;BME280;74129;52.540;13.416;2023-12-07T09:14:04;101330.80;;;2.67;73.13
84043;BME280;74129;52.540;13.416;2023-12-07T09:16:31;101330.89;;;2.67;73.02
84043;BME280;74129;52.540;13.416;2023-12-07T09:18:57;101334.52;;;2.70;73.62
84043;BME280;74129;52.540;13.416;2023-12-07T09:21:24;101336.59;;;2.72;73.26
84043;BME280;74129;52.540;13.416;2023-12-07T09:23:51;101334.52;;;2.76;73.18
84043;BME280;74129;52.540;13.416;2023-12-07T09:26:18;101340.06;;;2.81;73.28
84043;BME280;74129;52.540;13.416;2023-12-07T09:28:45;101343.11;;;2.84;73.13
84043;BME280;74129;52.540;13.416;2023-12-07T09:31:11;101339.17;;;2.89;73.31
84043;BME280;74129;52.540;13.416;2023-12-07T09:33:38;101335.88;;;2.94;73.15
84043;BME280;74129;52.540;13.416;2023-12-07T09:36:05;101337.48;;;2.95;73.07
84043;BME280;74129;52.540;13.416;2023-12-07T09:38:37;101339.64;;;2.97;72.86
84043;BME280;74129;52.540;13.416;2023-12-07T09:41:04;101337.80;;;2.97;72.74
84043;BME280;74129;52.540;13.416;2023-12-07T09:43:30;101338.64;;;2.97;72.64
84043;BME280;74129;52.540;13.416;2023-12-07T09:45:57;101340.52;;;2.98;72.60
84043;BME280;74129;52.540;13.416;2023-12-07T09:48:24;101342.08;;;2.95;72.54
84043;BME280;74129;52.540;13.416;2023-12-07T09:50:52;101351.56;;;2.89;72.20
84043;BME280;74129;52.540;13.416;2023-12-07T09:53:19;101358.62;;;2.84;72.56
84043;BME280;74129;52.540;13.416;2023-12-07T09:55:46;101359.76;;;2.78;72.26
84043;BME280;74129;52.540;13.416;2023-12-07T09:58:13;101357.52;;;2.73;72.49
84043;BME280;74129;52.540;13.416;2023-12-07T10:00:39;101362.91;;;2.72;72.62
84043;BME280;74129;52.540;13.416;2023-12-07T10:03:07;101360.89;;;2.67;72.29
84043;BME280;74129;52.540;13.416;2023-12-07T10:05:54;101360.36;;;2.61;72.21
84043;BME280;74129;52.540;13.416;2023-12-07T10:08:32;101361.67;;;2.56;72.18
84043;BME280;74129;52.540;13.416;2023-12-07T10:11:10;101360.55;;;2.49;72.65
84043;BME280;74129;52.540;13.416;2023-12-07T10:13:38;101359.69;;;2.46;72.69
84043;BME280;74129;52.540;13.416;2023-12-07T10:16:13;101358.95;;;2.45;72.75
84043;BME280;74129;52.540;13.416;2023-12-07T10:18:41;101356.70;;;2.46;72.92
84043;BME280;74129;52.540;13.416;2023-12-07T10:21:08;101355.50;;;2.47;73.23
84043;BME280;74129;52.540;13.416;2023-12-07T10:23:38;101348.23;;;2.44;72.92
84043;BME280;74129;52.540;13.416;2023-12-07T10:26:06;101341.65;;;2.44;73.01
84043;BME280;74129;52.540;13.416;2023-12-07T10:28:36;101337.46;;;2.48;73.28
84043;BME280;74129;52.540;13.416;2023-12-07T10:31:09;101333.45;;;2.51;72.91
84043;BME280;74129;52.540;13.416;2023-12-07T10:33:36;101337.75;;;2.55;72.94
84043;BME280;74129;52.540;13.416;2023-12-07T10:36:03;101346.11;;;2.56;72.98
84043;BME280;74129;52.540;13.416;2023-12-07T10:38:30;101347.98;;;2.58;72.79
84043;BME280;74129;52.540;13.416;2023-12-07T10:41:05;101348.29;;;2.60;73.26
84043;BME280;74129;52.540;13.416;2023-12-07T10:43:36;101346.55;;;2.62;73.09
84043;BME280;74129;52.540;13.416;2023-12-07T10:46:05;101349.52;;;2.64;73.06
84043;BME280;74129;52.540;13.416;2023-12-07T10:48:32;101345.21;;;2.62;72.87
84043;BME280;74129;52.540;13.416;2023-12-07T10:51:00;101341.38;;;2.63;72.53
84043;BME280;74129;52.540;13.416;2023-12-07T10:53:37;101339.14;;;2.67;72.78
84043;BME280;74129;52.540;13.416;2023-12-07T10:56:10;101344.81;;;2.66;72.59
84043;BME280;74129;52.540;13.416;2023-12-07T10:58:38;101343.01;;;2.68;72.83
84043;BME280;74129;52.540;13.416;2023-12-07T11:01:07;101344.90;;;2.73;72.69
84043;BME280;74129;52.540;13.416;2023-12-07T11:03:35;101344.44;;;2.79;72.73
84043;BME280;74129;52.540;13.416;2023-12-07T11:06:04;101341.14;;;2.80;72.39
84043;BME280;74129;52.540;13.416;2023-12-07T11:08:38;101339.44;;;2.78;72.51
84043;BME280;74129;52.540;13.416;2023-12-07T11:11:12;101335.98;;;2.73;72.71
84043;BME280;74129;52.540;13.416;2023-12-07T11:13:48;101330.96;;;2.73;72.55
84043;BME280;74129;52.540;13.416;2023-12-07T11:16:16;101328.38;;;2.80;72.47
84043;BME280;74129;52.540;13.416;2023-12-07T11:18:43;101328.96;;;2.83;72.72
84043;BME280;74129;52.540;13.416;2023-12-07T11:21:09;101327.73;;;2.85;72.52
84043;BME280;74129;52.540;13.416;2023-12-07T11:23:36;101332.17;;;2.85;72.73
84043;BME280;74129;52.540;13.416;2023-12-07T11:26:05;101327.91;;;2.81;72.75
84043;BME280;74129;52.540;13.416;2023-12-07T11:28:36;101321.35;;;2.79;72.65
84043;BME280;74129;52.540;13.416;2023-12-07T11:31:08;101318.25;;;2.78;73.18
84043;BME280;74129;52.540;13.416;2023-12-07T11:33:38;101315.96;;;2.80;72.66
84043;BME280;74129;52.540;13.416;2023-12-07T11:36:09;101320.93;;;2.84;73.12
84043;BME280;74129;52.540;13.416;2023-12-07T11:38:37;101315.18;;;2.86;73.20
84043;BME280;74129;52.540;13.416;2023-12-07T11:41:04;101314.20;;;2.90;72.88
84043;BME280;74129;52.540;13.416;2023-12-07T11:46:07;101308.45;;;2.98;72.36
84043;BME280;74129;52.540;13.416;2023-12-07T11:48:33;101314.41;;;3.01;72.74
84043;BME280;74129;52.540;13.416;2023-12-07T11:51:02;101315.34;;;3.00;72.23
84043;BME280;74129;52.540;13.416;2023-12-07T11:53:31;101320.52;;;2.92;72.34
84043;BME280;74129;52.540;13.416;2023-12-07T11:55:59;101315.42;;;2.89;72.69
84043;BME280;74129;52.540;13.416;2023-12-07T11:58:28;101317.29;;;2.88;72.85
84043;BME280;74129;52.540;13.416;2023-12-07T12:00:55;101319.27;;;2.86;73.01
84043;BME280;74129;52.540;13.416;2023-12-07T12:03:23;101323.52;;;2.83;72.81
84043;BME280;74129;52.540;13.416;2023-12-07T12:05:50;101322.23;;;2.78;73.08
84043;BME280;74129;52.540;13.416;2023-12-07T12:08:18;101318.04;;;2.76;73.36
84043;BME280;74129;52.540;13.416;2023-12-07T12:10:45;101317.03;;;2.74;73.24
84043;BME280;74129;52.540;13.416;2023-12-07T12:13:12;101314.89;;;2.71;73.32
84043;BME280;74129;52.540;13.416;2023-12-07T12:15:39;101318.76;;;2.72;73.24
84043;BME280;74129;52.540;13.416;2023-12-07T12:18:07;101317.23;;;2.69;73.29
84043;BME280;74129;52.540;13.416;2023-12-07T12:20:34;101315.54;;;2.65;73.36
84043;BME280;74129;52.540;13.416;2023-12-07T12:23:01;101314.47;;;2.64;73.69
84043;BME280;74129;52.540;13.416;2023-12-07T12:25:29;101315.56;;;2.64;73.82
84043;BME280;74129;52.540;13.416;2023-12-07T12:28:04;101313.42;;;2.66;73.74
84043;BME280;74129;52.540;13.416;2023-12-07T12:30:32;101310.88;;;2.66;74.16
84043;BME280;74129;52.540;13.416;2023-12-07T12:32:59;101311.22;;;2.69;73.89
84043;BME280;74129;52.540;13.416;2023-12-07T12:35:26;101309.77;;;2.74;74.12
84043;BME280;74129;52.540;13.416;2023-12-07T12:37:53;101314.09;;;2.78;73.91
84043;BME280;74129;52.540;13.416;2023-12-07T12:40:22;101320.42;;;2.79;74.09
84043;BME280;74129;52.540;13.416;2023-12-07T12:42:50;101320.09;;;2.82;73.49
84043;BME280;74129;52.540;13.416;2023-12-07T12:45:18;101318.77;;;2.81;73.75
84043;BME280;74129;52.540;13.416;2023-12-07T12:47:45;101316.15;;;2.81;73.96
84043;BME280;74129;52.540;13.416;2023-12-07T12:50:32;101320.82;;;2.79;73.74
84043;BME280;74129;52.540;13.416;2023-12-07T12:52:59;101320.24;;;2.78;74.11